sensor_id;sensor_type;location;lat;lon;timestamp;temperature;humidity
8527;DHT22;4301;48.362;8.478;2023-03-23T00:01:46;8.90;1.00
8527;DHT22;4301;48.362;8.478;2023-03-23T00:04:15;9.00;1.00
8527;DHT22;4301;48.362;8.478;2023-03-23T00:06:44;8.90;1.00
8527;DHT22;4301;48.362;8.478;2023-03-23T00:09:12;9.00;1.00
8527;DHT22;4301;48.362;8.478;2023-03-23T00:11:41;9.00;1.00
8527;DHT22;4301;48.362;8.478;2023-03-23T00:14:10;8.90;1.00
8527;DHT22;4301;48.362;8.478;2023-03-23T00:16:39;8.90;1.00
8527;DHT22;4301;48.362;8.478;2023-03-23T00:19:09;8.80;1.00
8527;DHT22;4301;48.362;8.478;2023-03-23T00:21:39;8.80;1.00
8527;DHT22;4301;48.362;8.478;2023-03-23T00:24:10;8.80;99.90
8527;DHT22;4301;48.362;8.478;2023-03-23T00:26:39;8.80;99.90
8527;DHT22;4301;48.362;8.478;2023-03-23T00:29:08;8.80;99.90
8527;DHT22;4301;48.362;8.478;2023-03-23T00:31:39;8.80;1.00
8527;DHT22;4301;48.362;8.478;2023-03-23T00:34:06;8.70;1.00
8527;DHT22;4301;48.362;8.478;2023-03-23T00:36:34;8.70;1.00
8527;DHT22;4301;48.362;8.478;2023-03-23T00:39:09;8.60;1.00
8527;DHT22;4301;48.362;8.478;2023-03-23T00:41:37;8.60;1.00
8527;DHT22;4301;48.362;8.478;2023-03-23T00:44:04;8.60;1.00
8527;DHT22;4301;48.362;8.478;2023-03-23T00:46:34;8.60;1.00
8527;DHT22;4301;48.362;8.478;2023-03-23T00:49:11;8.60;1.00
8527;DHT22;4301;48.362;8.478;2023-03-23T00:51:39;8.50;1.00
8527;DHT22;4301;48.362;8.478;2023-03-23T00:54:06;8.50;1.00
8527;DHT22;4301;48.362;8.478;2023-03-23T00:56:34;8.50;1.00
8527;DHT22;4301;48.362;8.478;2023-03-23T00:59:02;8.50;1.00
8527;DHT22;4301;48.362;8.478;2023-03-23T01:01:29;8.50;1.00
8527;DHT22;4301;48.362;8.478;2023-03-23T01:03:57;8.50;1.00
8527;DHT22;4301;48.362;8.478;2023-03-23T01:06:27;8.50;1.00
8527;DHT22;4301;48.362;8.478;2023-03-23T01:08:56;8.40;1.00
8527;DHT22;4301;48.362;8.478;2023-03-23T01:11:23;8.50;1.00
8527;DHT22;4301;48.362;8.478;2023-03-23T01:13:52;8.50;1.00
8527;DHT22;4301;48.362;8.478;2023-03-23T01:16:19;8.40;1.00
8527;DHT22;4301;48.362;8.478;2023-03-23T01:18:46;8.40;1.00
8527;DHT22;4301;48.362;8.478;2023-03-23T01:21:15;8.40;1.00
8527;DHT22;4301;48.362;8.478;2023-03-23T01:23:43;8.50;1.00
8527;DHT22;4301;48.362;8.478;2023-03-23T01:26:12;8.40;1.00
8527;DHT22;4301;48.362;8.478;2023-03-23T01:28:40;8.40;1.00
8527;DHT22;4301;48.362;8.478;2023-03-23T01:31:10;8.50;1.00
8527;DHT22;4301;48.362;8.478;2023-03-23T01:33:38;8.50;1.00
8527;DHT22;4301;48.362;8.478;2023-03-23T01:36:07;8.50;1.00
8527;DHT22;4301;48.362;8.478;2023-03-23T01:38:35;8.50;1.00
8527;DHT22;4301;48.362;8.478;2023-03-23T01:41:03;8.50;1.00
8527;DHT22;4301;48.362;8.478;2023-03-23T01:43:30;8.60;1.00
8527;DHT22;4301;48.362;8.478;2023-03-23T01:45:57;8.70;1.00
8527;DHT22;4301;48.362;8.478;2023-03-23T01:48:29;8.60;1.00
8527;DHT22;4301;48.362;8.478;2023-03-23T01:50:59;8.60;1.00
8527;DHT22;4301;48.362;8.478;2023-03-23T01:53:31;8.70;1.00
8527;DHT22;4301;48.362;8.478;2023-03-23T01:56:00;8.80;1.00
8527;DHT22;4301;48.362;8.478;2023-03-23T01:58:30;8.80;1.00
8527;DHT22;4301;48.362;8.478;2023-03-23T02:01:01;8.80;1.00
8527;DHT22;4301;48.362;8.478;2023-03-23T02:03:31;8.90;1.00
8527;DHT22;4301;48.362;8.478;2023-03-23T02:05:59;8.90;1.00
8527;DHT22;4301;48.362;8.478;2023-03-23T02:08:27;8.90;1.00
8527;DHT22;4301;48.362;8.478;2023-03-23T02:10:55;9.00;1.00
8527;DHT22;4301;48.362;8.478;2023-03-23T02:13:22;9.00;1.00
8527;DHT22;4301;48.362;8.478;2023-03-23T02:15:58;9.00;1.00
8527;DHT22;4301;48.362;8.478;2023-03-23T02:18:39;9.00;1.00
8527;DHT22;4301;48.362;8.478;2023-03-23T02:21:20;9.00;1.00
8527;DHT22;4301;48.362;8.478;2023-03-23T02:26:50;8.90;1.00
8527;DHT22;4301;48.362;8.478;2023-03-23T02:29:48;8.80;1.00
8527;DHT22;4301;48.362;8.478;2023-03-23T02:35:24;8.80;1.00
8527;DHT22;4301;48.362;8.478;2023-03-23T02:37:58;8.80;1.00
8527;DHT22;4301;48.362;8.478;2023-03-23T02:40:30;8.90;1.00
8527;DHT22;4301;48.362;8.478;2023-03-23T02:42:58;9.00;1.00
8527;DHT22;4301;48.362;8.478;2023-03-23T02:45:28;9.10;99.90
8527;DHT22;4301;48.362;8.478;2023-03-23T02:47:56;9.30;99.90
8527;DHT22;4301;48.362;8.478;2023-03-23T02:50:27;9.30;1.00
8527;DHT22;4301;48.362;8.478;2023-03-23T02:52:55;9.30;43.10
8527;DHT22;4301;48.362;8.478;2023-03-23T02:55:25;9.20;43.00
8527;DHT22;4301;48.362;8.478;2023-03-23T02:57:54;9.20;99.90
8527;DHT22;4301;48.362;8.478;2023-03-23T03:00:22;9.30;1.00
8527;DHT22;4301;48.362;8.478;2023-03-23T03:02:50;9.40;99.90
8527;DHT22;4301;48.362;8.478;2023-03-23T03:05:28;9.50;1.00
8527;DHT22;4301;48.362;8.478;2023-03-23T03:08:10;9.50;99.90
8527;DHT22;4301;48.362;8.478;2023-03-23T03:10:46;9.50;1.00
8527;DHT22;4301;48.362;8.478;2023-03-23T03:13:23;9.50;1.00
8527;DHT22;4301;48.362;8.478;2023-03-23T03:15:56;9.60;99.90
8527;DHT22;4301;48.362;8.478;2023-03-23T03:18:27;9.60;1.00
8527;DHT22;4301;48.362;8.478;2023-03-23T03:20:59;9.70;67.30
8527;DHT22;4301;48.362;8.478;2023-03-23T03:23:28;9.70;1.00
8527;DHT22;4301;48.362;8.478;2023-03-23T03:25:57;9.70;61.10
8527;DHT22;4301;48.362;8.478;2023-03-23T03:28:25;9.60;25.30
8527;DHT22;4301;48.362;8.478;2023-03-23T03:30:56;9.70;99.90
8527;DHT22;4301;48.362;8.478;2023-03-23T03:33:26;9.70;99.90
8527;DHT22;4301;48.362;8.478;2023-03-23T03:35:59;9.70;1.00
8527;DHT22;4301;48.362;8.478;2023-03-23T03:38:27;9.60;1.00
8527;DHT22;4301;48.362;8.478;2023-03-23T03:40:54;9.50;99.90
8527;DHT22;4301;48.362;8.478;2023-03-23T03:43:22;9.50;1.00
8527;DHT22;4301;48.362;8.478;2023-03-23T03:45:49;9.40;1.00
8527;DHT22;4301;48.362;8.478;2023-03-23T03:48:15;9.40;99.90
8527;DHT22;4301;48.362;8.478;2023-03-23T03:50:42;9.40;99.90
8527;DHT22;4301;48.362;8.478;2023-03-23T03:53:11;9.30;1.00
8527;DHT22;4301;48.362;8.478;2023-03-23T03:55:38;9.30;99.90
8527;DHT22;4301;48.362;8.478;2023-03-23T03:58:10;9.30;99.90
8527;DHT22;4301;48.362;8.478;2023-03-23T04:00:38;9.40;1.00
8527;DHT22;4301;48.362;8.478;2023-03-23T04:03:06;9.40;1.00
8527;DHT22;4301;48.362;8.478;2023-03-23T04:05:35;9.40;1.00
8527;DHT22;4301;48.362;8.478;2023-03-23T04:08:03;9.50;1.00
8527;DHT22;4301;48.362;8.478;2023-03-23T04:10:32;9.60;1.00
8527;DHT22;4301;48.362;8.478;2023-03-23T04:12:59;9.60;99.90
8527;DHT22;4301;48.362;8.478;2023-03-23T04:15:26;9.60;1.00
8527;DHT22;4301;48.362;8.478;2023-03-23T04:17:53;9.70;99.90
8527;DHT22;4301;48.362;8.478;2023-03-23T04:20:22;9.70;99.90
8527;DHT22;4301;48.362;8.478;2023-03-23T04:22:49;9.70;99.90
8527;DHT22;4301;48.362;8.478;2023-03-23T04:25:18;9.70;65.80
8527;DHT22;4301;48.362;8.478;2023-03-23T04:27:48;9.70;92.30
8527;DHT22;4301;48.362;8.478;2023-03-23T04:30:18;9.70;99.90
8527;DHT22;4301;48.362;8.478;2023-03-23T04:32:45;9.70;99.90
8527;DHT22;4301;48.362;8.478;2023-03-23T04:35:16;9.60;1.00
8527;DHT22;4301;48.362;8.478;2023-03-23T04:37:43;9.60;12.10
8527;DHT22;4301;48.362;8.478;2023-03-23T04:40:11;9.60;99.90
8527;DHT22;4301;48.362;8.478;2023-03-23T04:42:40;9.60;99.90
8527;DHT22;4301;48.362;8.478;2023-03-23T04:45:13;9.60;99.90
8527;DHT22;4301;48.362;8.478;2023-03-23T04:47:41;9.60;1.00
8527;DHT22;4301;48.362;8.478;2023-03-23T04:50:19;9.60;99.90
8527;DHT22;4301;48.362;8.478;2023-03-23T04:52:47;9.60;1.00
8527;DHT22;4301;48.362;8.478;2023-03-23T04:55:17;9.60;1.00
8527;DHT22;4301;48.362;8.478;2023-03-23T04:57:46;9.60;1.00
8527;DHT22;4301;48.362;8.478;2023-03-23T05:00:15;9.60;1.00
8527;DHT22;4301;48.362;8.478;2023-03-23T05:02:43;9.60;99.90
8527;DHT22;4301;48.362;8.478;2023-03-23T05:05:11;9.60;1.00
8527;DHT22;4301;48.362;8.478;2023-03-23T05:07:38;9.60;1.00
8527;DHT22;4301;48.362;8.478;2023-03-23T05:10:07;9.60;1.00
8527;DHT22;4301;48.362;8.478;2023-03-23T05:12:34;9.60;1.00
8527;DHT22;4301;48.362;8.478;2023-03-23T05:15:02;9.60;1.00
8527;DHT22;4301;48.362;8.478;2023-03-23T05:17:30;9.60;1.00
8527;DHT22;4301;48.362;8.478;2023-03-23T05:19:58;9.60;1.00
8527;DHT22;4301;48.362;8.478;2023-03-23T05:22:26;9.60;99.90
8527;DHT22;4301;48.362;8.478;2023-03-23T05:24:54;9.60;1.00
8527;DHT22;4301;48.362;8.478;2023-03-23T05:27:20;9.50;1.00
8527;DHT22;4301;48.362;8.478;2023-03-23T05:29:47;9.50;99.90
8527;DHT22;4301;48.362;8.478;2023-03-23T05:32:15;9.60;99.90
8527;DHT22;4301;48.362;8.478;2023-03-23T05:34:43;9.60;99.90
8527;DHT22;4301;48.362;8.478;2023-03-23T05:37:12;9.50;99.90
8527;DHT22;4301;48.362;8.478;2023-03-23T05:39:39;9.50;99.90
8527;DHT22;4301;48.362;8.478;2023-03-23T05:42:06;9.40;99.90
8527;DHT22;4301;48.362;8.478;2023-03-23T05:44:34;9.50;1.00
8527;DHT22;4301;48.362;8.478;2023-03-23T05:47:02;9.50;1.00
8527;DHT22;4301;48.362;8.478;2023-03-23T05:49:29;9.60;99.90
8527;DHT22;4301;48.362;8.478;2023-03-23T05:51:58;9.70;1.00
8527;DHT22;4301;48.362;8.478;2023-03-23T05:54:25;10.10;99.90
8527;DHT22;4301;48.362;8.478;2023-03-23T05:56:52;10.40;99.90
8527;DHT22;4301;48.362;8.478;2023-03-23T05:59:19;10.50;99.90
8527;DHT22;4301;48.362;8.478;2023-03-23T06:01:46;10.60;1.00
8527;DHT22;4301;48.362;8.478;2023-03-23T06:04:13;10.70;1.00
8527;DHT22;4301;48.362;8.478;2023-03-23T06:06:42;11.00;99.90
8527;DHT22;4301;48.362;8.478;2023-03-23T06:09:10;11.10;99.90
8527;DHT22;4301;48.362;8.478;2023-03-23T06:11:37;11.20;1.00
8527;DHT22;4301;48.362;8.478;2023-03-23T06:14:04;11.50;1.00
8527;DHT22;4301;48.362;8.478;2023-03-23T06:16:31;11.60;99.90
8527;DHT22;4301;48.362;8.478;2023-03-23T06:18:58;11.70;99.90
8527;DHT22;4301;48.362;8.478;2023-03-23T06:21:26;11.80;99.90
8527;DHT22;4301;48.362;8.478;2023-03-23T06:23:53;11.90;1.00
8527;DHT22;4301;48.362;8.478;2023-03-23T06:26:25;11.90;1.00
8527;DHT22;4301;48.362;8.478;2023-03-23T06:28:53;11.90;8.40
8527;DHT22;4301;48.362;8.478;2023-03-23T06:31:21;11.90;55.10
8527;DHT22;4301;48.362;8.478;2023-03-23T06:33:48;12.10;1.00
8527;DHT22;4301;48.362;8.478;2023-03-23T06:36:15;12.10;1.00
8527;DHT22;4301;48.362;8.478;2023-03-23T06:38:43;12.20;1.00
8527;DHT22;4301;48.362;8.478;2023-03-23T06:41:10;12.20;21.70
8527;DHT22;4301;48.362;8.478;2023-03-23T06:43:39;12.20;1.00
8527;DHT22;4301;48.362;8.478;2023-03-23T06:46:06;12.20;1.00
8527;DHT22;4301;48.362;8.478;2023-03-23T06:48:33;12.20;99.90
8527;DHT22;4301;48.362;8.478;2023-03-23T06:51:01;12.10;1.00
8527;DHT22;4301;48.362;8.478;2023-03-23T06:53:28;12.00;1.00
8527;DHT22;4301;48.362;8.478;2023-03-23T06:55:55;12.10;99.90
8527;DHT22;4301;48.362;8.478;2023-03-23T06:58:22;12.10;99.90
8527;DHT22;4301;48.362;8.478;2023-03-23T07:00:54;12.10;99.90
8527;DHT22;4301;48.362;8.478;2023-03-23T07:03:22;12.10;99.90
8527;DHT22;4301;48.362;8.478;2023-03-23T07:05:49;12.20;1.00
8527;DHT22;4301;48.362;8.478;2023-03-23T07:08:16;12.10;1.00
8527;DHT22;4301;48.362;8.478;2023-03-23T07:10:43;12.10;1.00
8527;DHT22;4301;48.362;8.478;2023-03-23T07:13:10;12.00;99.90
8527;DHT22;4301;48.362;8.478;2023-03-23T07:15:38;11.90;1.00
8527;DHT22;4301;48.362;8.478;2023-03-23T07:18:07;11.90;1.00
8527;DHT22;4301;48.362;8.478;2023-03-23T07:20:34;11.70;1.00
8527;DHT22;4301;48.362;8.478;2023-03-23T07:23:01;11.70;99.90
8527;DHT22;4301;48.362;8.478;2023-03-23T07:25:30;11.60;99.90
8527;DHT22;4301;48.362;8.478;2023-03-23T07:27:58;11.60;99.90
8527;DHT22;4301;48.362;8.478;2023-03-23T07:30:25;11.50;99.90
8527;DHT22;4301;48.362;8.478;2023-03-23T07:32:55;11.50;99.90
8527;DHT22;4301;48.362;8.478;2023-03-23T07:35:23;11.50;99.90
8527;DHT22;4301;48.362;8.478;2023-03-23T07:37:51;11.50;1.00
8527;DHT22;4301;48.362;8.478;2023-03-23T07:40:19;11.40;1.00
8527;DHT22;4301;48.362;8.478;2023-03-23T07:42:51;11.50;1.00
8527;DHT22;4301;48.362;8.478;2023-03-23T07:45:18;11.50;1.00
8527;DHT22;4301;48.362;8.478;2023-03-23T07:47:46;11.50;1.00
8527;DHT22;4301;48.362;8.478;2023-03-23T07:50:13;11.70;1.00
8527;DHT22;4301;48.362;8.478;2023-03-23T07:52:41;11.80;99.90
8527;DHT22;4301;48.362;8.478;2023-03-23T07:55:10;12.00;1.00
8527;DHT22;4301;48.362;8.478;2023-03-23T07:57:43;12.00;99.90
8527;DHT22;4301;48.362;8.478;2023-03-23T08:00:11;12.10;99.90
8527;DHT22;4301;48.362;8.478;2023-03-23T08:02:41;12.30;99.90
8527;DHT22;4301;48.362;8.478;2023-03-23T08:05:08;12.30;99.90
8527;DHT22;4301;48.362;8.478;2023-03-23T08:07:35;12.30;1.00
8527;DHT22;4301;48.362;8.478;2023-03-23T08:10:05;12.20;1.00
8527;DHT22;4301;48.362;8.478;2023-03-23T08:12:35;12.20;99.90
8527;DHT22;4301;48.362;8.478;2023-03-23T08:15:03;12.30;99.90
8527;DHT22;4301;48.362;8.478;2023-03-23T08:17:30;12.10;1.00
8527;DHT22;4301;48.362;8.478;2023-03-23T08:19:56;12.10;99.90
8527;DHT22;4301;48.362;8.478;2023-03-23T08:22:23;12.30;99.90
8527;DHT22;4301;48.362;8.478;2023-03-23T08:24:50;12.40;99.90
8527;DHT22;4301;48.362;8.478;2023-03-23T08:27:19;12.50;1.00
8527;DHT22;4301;48.362;8.478;2023-03-23T08:29:46;12.50;99.90
8527;DHT22;4301;48.362;8.478;2023-03-23T08:32:13;12.20;1.00
8527;DHT22;4301;48.362;8.478;2023-03-23T08:34:41;12.20;99.90
8527;DHT22;4301;48.362;8.478;2023-03-23T08:37:08;12.10;99.90
8527;DHT22;4301;48.362;8.478;2023-03-23T08:39:35;12.10;99.90
8527;DHT22;4301;48.362;8.478;2023-03-23T08:42:03;12.00;99.90
8527;DHT22;4301;48.362;8.478;2023-03-23T08:44:31;11.80;99.90
8527;DHT22;4301;48.362;8.478;2023-03-23T08:46:58;11.80;99.90
8527;DHT22;4301;48.362;8.478;2023-03-23T08:49:26;11.90;1.00
8527;DHT22;4301;48.362;8.478;2023-03-23T08:51:52;11.90;99.90
8527;DHT22;4301;48.362;8.478;2023-03-23T08:54:20;11.90;1.00
8527;DHT22;4301;48.362;8.478;2023-03-23T08:56:47;12.00;1.00
8527;DHT22;4301;48.362;8.478;2023-03-23T08:59:14;12.10;1.00
8527;DHT22;4301;48.362;8.478;2023-03-23T09:01:42;12.40;1.00
8527;DHT22;4301;48.362;8.478;2023-03-23T09:04:09;12.60;99.90
8527;DHT22;4301;48.362;8.478;2023-03-23T09:06:37;12.70;1.00
8527;DHT22;4301;48.362;8.478;2023-03-23T09:09:04;12.90;1.00
8527;DHT22;4301;48.362;8.478;2023-03-23T09:11:32;12.90;99.90
8527;DHT22;4301;48.362;8.478;2023-03-23T09:14:00;12.80;1.00
8527;DHT22;4301;48.362;8.478;2023-03-23T09:16:27;12.60;1.00
8527;DHT22;4301;48.362;8.478;2023-03-23T09:18:56;12.60;99.90
8527;DHT22;4301;48.362;8.478;2023-03-23T09:21:23;12.50;99.90
8527;DHT22;4301;48.362;8.478;2023-03-23T09:23:51;12.60;99.90
8527;DHT22;4301;48.362;8.478;2023-03-23T09:26:18;12.60;1.00
8527;DHT22;4301;48.362;8.478;2023-03-23T09:28:45;12.50;1.00
8527;DHT22;4301;48.362;8.478;2023-03-23T09:31:12;12.70;99.90
8527;DHT22;4301;48.362;8.478;2023-03-23T09:33:39;13.00;1.00
8527;DHT22;4301;48.362;8.478;2023-03-23T09:36:09;13.20;1.00
8527;DHT22;4301;48.362;8.478;2023-03-23T09:38:38;13.60;1.00
8527;DHT22;4301;48.362;8.478;2023-03-23T09:41:15;13.60;99.90
8527;DHT22;4301;48.362;8.478;2023-03-23T09:43:59;13.80;1.00
8527;DHT22;4301;48.362;8.478;2023-03-23T09:46:38;13.70;1.00
8527;DHT22;4301;48.362;8.478;2023-03-23T09:49:10;13.80;99.90
8527;DHT22;4301;48.362;8.478;2023-03-23T09:51:44;13.60;1.00
8527;DHT22;4301;48.362;8.478;2023-03-23T09:54:19;13.20;99.90
8527;DHT22;4301;48.362;8.478;2023-03-23T09:56:48;13.30;1.00
8527;DHT22;4301;48.362;8.478;2023-03-23T09:59:20;13.10;1.00
8527;DHT22;4301;48.362;8.478;2023-03-23T10:01:50;13.10;99.90
8527;DHT22;4301;48.362;8.478;2023-03-23T10:04:31;13.40;1.00
8527;DHT22;4301;48.362;8.478;2023-03-23T10:07:09;13.50;99.90
8527;DHT22;4301;48.362;8.478;2023-03-23T10:09:37;13.70;1.00
8527;DHT22;4301;48.362;8.478;2023-03-23T10:12:10;13.70;1.00
8527;DHT22;4301;48.362;8.478;2023-03-23T10:14:59;13.50;99.90
8527;DHT22;4301;48.362;8.478;2023-03-23T10:17:28;13.20;1.00
8527;DHT22;4301;48.362;8.478;2023-03-23T10:20:18;13.20;1.00
8527;DHT22;4301;48.362;8.478;2023-03-23T10:22:52;13.50;1.00
8527;DHT22;4301;48.362;8.478;2023-03-23T10:25:23;14.20;99.90
8527;DHT22;4301;48.362;8.478;2023-03-23T10:27:57;14.80;99.90
8527;DHT22;4301;48.362;8.478;2023-03-23T10:30:30;15.30;1.00
8527;DHT22;4301;48.362;8.478;2023-03-23T10:33:02;14.90;1.00
8527;DHT22;4301;48.362;8.478;2023-03-23T10:35:33;14.70;1.00
8527;DHT22;4301;48.362;8.478;2023-03-23T10:38:06;15.30;99.90
8527;DHT22;4301;48.362;8.478;2023-03-23T10:40:47;15.20;1.00
8527;DHT22;4301;48.362;8.478;2023-03-23T10:43:15;15.40;1.00
8527;DHT22;4301;48.362;8.478;2023-03-23T10:45:44;15.20;1.00
8527;DHT22;4301;48.362;8.478;2023-03-23T10:48:15;15.80;99.90
8527;DHT22;4301;48.362;8.478;2023-03-23T10:50:45;15.70;99.90
8527;DHT22;4301;48.362;8.478;2023-03-23T10:53:18;15.70;99.90
8527;DHT22;4301;48.362;8.478;2023-03-23T10:55:46;15.60;99.90
8527;DHT22;4301;48.362;8.478;2023-03-23T10:58:23;15.30;99.90
8527;DHT22;4301;48.362;8.478;2023-03-23T11:00:50;15.10;99.90
8527;DHT22;4301;48.362;8.478;2023-03-23T11:06:09;14.90;99.90
8527;DHT22;4301;48.362;8.478;2023-03-23T11:08:47;14.70;99.90
8527;DHT22;4301;48.362;8.478;2023-03-23T11:11:17;14.70;99.90
8527;DHT22;4301;48.362;8.478;2023-03-23T11:13:46;15.10;99.90
8527;DHT22;4301;48.362;8.478;2023-03-23T11:16:23;15.20;3.30
8527;DHT22;4301;48.362;8.478;2023-03-23T11:18:50;15.20;35.40
8527;DHT22;4301;48.362;8.478;2023-03-23T11:21:19;15.80;1.00
8527;DHT22;4301;48.362;8.478;2023-03-23T11:23:50;15.90;1.00
8527;DHT22;4301;48.362;8.478;2023-03-23T11:26:21;17.00;1.00
8527;DHT22;4301;48.362;8.478;2023-03-23T11:28:53;17.20;1.00
8527;DHT22;4301;48.362;8.478;2023-03-23T11:31:23;17.50;99.90
8527;DHT22;4301;48.362;8.478;2023-03-23T11:33:53;16.90;99.90
8527;DHT22;4301;48.362;8.478;2023-03-23T11:36:29;16.70;99.90
8527;DHT22;4301;48.362;8.478;2023-03-23T11:38:58;17.10;99.90
8527;DHT22;4301;48.362;8.478;2023-03-23T11:41:33;17.10;99.90
8527;DHT22;4301;48.362;8.478;2023-03-23T11:44:08;17.20;99.90
8527;DHT22;4301;48.362;8.478;2023-03-23T11:46:43;17.30;99.90
8527;DHT22;4301;48.362;8.478;2023-03-23T11:49:20;17.90;99.90
8527;DHT22;4301;48.362;8.478;2023-03-23T11:51:51;18.50;99.90
8527;DHT22;4301;48.362;8.478;2023-03-23T11:54:29;18.60;99.90
8527;DHT22;4301;48.362;8.478;2023-03-23T11:56:56;17.30;99.90
8527;DHT22;4301;48.362;8.478;2023-03-23T11:59:29;16.70;99.90
8527;DHT22;4301;48.362;8.478;2023-03-23T12:02:03;16.60;99.90
8527;DHT22;4301;48.362;8.478;2023-03-23T12:04:46;16.10;99.90
8527;DHT22;4301;48.362;8.478;2023-03-23T12:07:30;15.90;99.90
8527;DHT22;4301;48.362;8.478;2023-03-23T12:10:13;16.90;99.90
8527;DHT22;4301;48.362;8.478;2023-03-23T12:12:50;17.60;99.90
8527;DHT22;4301;48.362;8.478;2023-03-23T12:15:24;18.00;99.90
8527;DHT22;4301;48.362;8.478;2023-03-23T12:17:58;18.40;99.90
8527;DHT22;4301;48.362;8.478;2023-03-23T12:20:37;17.60;99.90
8527;DHT22;4301;48.362;8.478;2023-03-23T12:23:15;17.50;99.90
8527;DHT22;4301;48.362;8.478;2023-03-23T12:25:55;17.10;99.90
8527;DHT22;4301;48.362;8.478;2023-03-23T12:28:32;16.60;99.90
8527;DHT22;4301;48.362;8.478;2023-03-23T12:31:09;16.20;99.90
8527;DHT22;4301;48.362;8.478;2023-03-23T12:33:45;16.60;99.90
8527;DHT22;4301;48.362;8.478;2023-03-23T12:36:25;16.80;99.90
8527;DHT22;4301;48.362;8.478;2023-03-23T12:39:31;16.40;99.90
8527;DHT22;4301;48.362;8.478;2023-03-23T12:42:09;16.80;99.90
8527;DHT22;4301;48.362;8.478;2023-03-23T12:44:48;16.90;99.90
8527;DHT22;4301;48.362;8.478;2023-03-23T12:47:34;16.40;99.90
8527;DHT22;4301;48.362;8.478;2023-03-23T12:50:07;16.30;99.90
8527;DHT22;4301;48.362;8.478;2023-03-23T12:52:42;16.40;99.90
8527;DHT22;4301;48.362;8.478;2023-03-23T12:55:17;16.40;99.90
8527;DHT22;4301;48.362;8.478;2023-03-23T12:57:51;16.10;99.90
8527;DHT22;4301;48.362;8.478;2023-03-23T13:00:23;16.10;99.90
8527;DHT22;4301;48.362;8.478;2023-03-23T13:02:58;16.10;99.90
8527;DHT22;4301;48.362;8.478;2023-03-23T13:05:32;16.30;99.90
8527;DHT22;4301;48.362;8.478;2023-03-23T13:08:05;16.30;99.90
8527;DHT22;4301;48.362;8.478;2023-03-23T13:10:38;16.00;99.90
8527;DHT22;4301;48.362;8.478;2023-03-23T13:13:12;16.30;99.90
8527;DHT22;4301;48.362;8.478;2023-03-23T13:15:49;16.40;99.90
8527;DHT22;4301;48.362;8.478;2023-03-23T13:18:27;16.50;99.90
8527;DHT22;4301;48.362;8.478;2023-03-23T13:21:02;16.60;99.90
8527;DHT22;4301;48.362;8.478;2023-03-23T13:23:35;16.20;99.90
8527;DHT22;4301;48.362;8.478;2023-03-23T13:26:07;16.00;99.90
8527;DHT22;4301;48.362;8.478;2023-03-23T13:28:50;16.00;99.90
8527;DHT22;4301;48.362;8.478;2023-03-23T13:31:21;16.10;99.90
8527;DHT22;4301;48.362;8.478;2023-03-23T13:33:52;16.00;99.90
8527;DHT22;4301;48.362;8.478;2023-03-23T13:36:27;15.80;99.90
8527;DHT22;4301;48.362;8.478;2023-03-23T13:38:56;15.80;99.90
8527;DHT22;4301;48.362;8.478;2023-03-23T13:41:24;16.00;99.90
8527;DHT22;4301;48.362;8.478;2023-03-23T13:44:05;15.50;99.90
8527;DHT22;4301;48.362;8.478;2023-03-23T13:46:33;15.30;99.90
8527;DHT22;4301;48.362;8.478;2023-03-23T13:49:19;15.20;99.90
8527;DHT22;4301;48.362;8.478;2023-03-23T13:52:00;15.50;99.90
8527;DHT22;4301;48.362;8.478;2023-03-23T13:54:37;15.60;99.90
8527;DHT22;4301;48.362;8.478;2023-03-23T13:57:23;15.80;99.90
8527;DHT22;4301;48.362;8.478;2023-03-23T13:59:57;15.40;99.90
8527;DHT22;4301;48.362;8.478;2023-03-23T14:02:31;15.10;99.90
8527;DHT22;4301;48.362;8.478;2023-03-23T14:05:10;15.10;99.90
8527;DHT22;4301;48.362;8.478;2023-03-23T14:07:55;15.00;99.90
8527;DHT22;4301;48.362;8.478;2023-03-23T14:10:23;15.00;99.90
8527;DHT22;4301;48.362;8.478;2023-03-23T14:12:52;15.10;99.90
8527;DHT22;4301;48.362;8.478;2023-03-23T14:15:28;15.10;99.90
8527;DHT22;4301;48.362;8.478;2023-03-23T14:17:55;15.00;99.90
8527;DHT22;4301;48.362;8.478;2023-03-23T14:20:26;15.00;99.90
8527;DHT22;4301;48.362;8.478;2023-03-23T14:22:57;15.00;99.90
8527;DHT22;4301;48.362;8.478;2023-03-23T14:25:27;15.00;99.90
8527;DHT22;4301;48.362;8.478;2023-03-23T14:27:56;15.20;99.90
8527;DHT22;4301;48.362;8.478;2023-03-23T14:30:26;15.00;99.90
8527;DHT22;4301;48.362;8.478;2023-03-23T14:33:03;14.90;99.90
8527;DHT22;4301;48.362;8.478;2023-03-23T14:35:32;15.00;99.90
8527;DHT22;4301;48.362;8.478;2023-03-23T14:38:00;15.10;99.90
8527;DHT22;4301;48.362;8.478;2023-03-23T14:40:28;15.00;99.90
8527;DHT22;4301;48.362;8.478;2023-03-23T14:42:56;14.90;99.90
8527;DHT22;4301;48.362;8.478;2023-03-23T14:45:25;14.80;99.90
8527;DHT22;4301;48.362;8.478;2023-03-23T14:47:54;14.80;99.90
8527;DHT22;4301;48.362;8.478;2023-03-23T14:50:26;14.90;99.90
8527;DHT22;4301;48.362;8.478;2023-03-23T14:52:58;14.70;99.90
8527;DHT22;4301;48.362;8.478;2023-03-23T14:55:25;14.60;99.90
8527;DHT22;4301;48.362;8.478;2023-03-23T14:57:54;14.50;99.90
8527;DHT22;4301;48.362;8.478;2023-03-23T15:00:23;14.40;99.90
8527;DHT22;4301;48.362;8.478;2023-03-23T15:02:54;14.50;99.90
8527;DHT22;4301;48.362;8.478;2023-03-23T15:05:25;14.40;99.90
8527;DHT22;4301;48.362;8.478;2023-03-23T15:07:56;14.40;99.90
8527;DHT22;4301;48.362;8.478;2023-03-23T15:10:25;14.30;99.90
8527;DHT22;4301;48.362;8.478;2023-03-23T15:12:52;14.30;99.90
8527;DHT22;4301;48.362;8.478;2023-03-23T15:15:26;14.10;99.90
8527;DHT22;4301;48.362;8.478;2023-03-23T15:17:55;14.10;1.00
8527;DHT22;4301;48.362;8.478;2023-03-23T15:20:24;14.10;1.00
8527;DHT22;4301;48.362;8.478;2023-03-23T15:22:52;14.10;1.00
8527;DHT22;4301;48.362;8.478;2023-03-23T15:25:20;14.10;1.00
8527;DHT22;4301;48.362;8.478;2023-03-23T15:27:52;14.00;1.00
8527;DHT22;4301;48.362;8.478;2023-03-23T15:30:32;14.00;1.00
8527;DHT22;4301;48.362;8.478;2023-03-23T15:33:06;14.00;1.00
8527;DHT22;4301;48.362;8.478;2023-03-23T15:35:37;14.00;1.00
8527;DHT22;4301;48.362;8.478;2023-03-23T15:38:06;13.90;1.00
8527;DHT22;4301;48.362;8.478;2023-03-23T15:40:35;14.10;1.00
8527;DHT22;4301;48.362;8.478;2023-03-23T15:43:07;14.00;1.00
8527;DHT22;4301;48.362;8.478;2023-03-23T15:45:35;14.10;1.00
8527;DHT22;4301;48.362;8.478;2023-03-23T15:48:11;14.20;1.00
8527;DHT22;4301;48.362;8.478;2023-03-23T15:50:40;14.20;1.00
8527;DHT22;4301;48.362;8.478;2023-03-23T15:53:19;14.20;1.00
8527;DHT22;4301;48.362;8.478;2023-03-23T15:55:46;14.10;1.00
8527;DHT22;4301;48.362;8.478;2023-03-23T15:58:13;14.10;1.00
8527;DHT22;4301;48.362;8.478;2023-03-23T16:00:42;14.00;1.00
8527;DHT22;4301;48.362;8.478;2023-03-23T16:03:15;14.00;1.00
8527;DHT22;4301;48.362;8.478;2023-03-23T16:05:44;13.90;1.00
8527;DHT22;4301;48.362;8.478;2023-03-23T16:08:11;13.70;1.00
8527;DHT22;4301;48.362;8.478;2023-03-23T16:10:39;13.70;1.00
8527;DHT22;4301;48.362;8.478;2023-03-23T16:13:06;13.80;1.00
8527;DHT22;4301;48.362;8.478;2023-03-23T16:15:33;13.80;1.00
8527;DHT22;4301;48.362;8.478;2023-03-23T16:18:00;13.80;10.90
8527;DHT22;4301;48.362;8.478;2023-03-23T16:20:29;13.80;24.20
8527;DHT22;4301;48.362;8.478;2023-03-23T16:22:57;13.80;83.60
8527;DHT22;4301;48.362;8.478;2023-03-23T16:25:25;13.90;99.90
8527;DHT22;4301;48.362;8.478;2023-03-23T16:27:51;13.80;99.90
8527;DHT22;4301;48.362;8.478;2023-03-23T16:30:22;13.70;99.90
8527;DHT22;4301;48.362;8.478;2023-03-23T16:32:48;13.70;99.90
8527;DHT22;4301;48.362;8.478;2023-03-23T16:35:16;13.70;99.90
8527;DHT22;4301;48.362;8.478;2023-03-23T16:37:45;13.70;99.90
8527;DHT22;4301;48.362;8.478;2023-03-23T16:40:13;13.60;99.90
8527;DHT22;4301;48.362;8.478;2023-03-23T16:42:41;13.70;99.90
8527;DHT22;4301;48.362;8.478;2023-03-23T16:45:09;13.70;63.70